createdAt,value
2018-07-03T00:03:54.408Z,46
2018-07-03T00:08:56.602Z,46.900002
2018-07-03T00:13:58.987Z,46
2018-07-03T00:19:01.187Z,45.900002
2018-07-03T00:24:03.778Z,45.799999
2018-07-03T00:29:05.766Z,46.099998
2018-07-03T00:34:08.153Z,45.5
2018-07-03T00:39:10.374Z,46.299999
2018-07-03T00:44:12.700Z,46.099998
2018-07-03T00:49:14.916Z,46.299999
2018-07-03T00:59:19.538Z,47.700001
2018-07-03T01:04:21.792Z,48.400002
2018-07-03T01:09:24.100Z,49.200001
2018-07-03T01:14:26.416Z,50
2018-07-03T01:19:28.681Z,50.400002
2018-07-03T01:24:31.033Z,51.400002
2018-07-03T01:29:33.344Z,52.400002
2018-07-03T01:34:35.584Z,52.700001
2018-07-03T01:44:40.282Z,53.5
2018-07-03T01:54:44.882Z,55.700001
2018-07-03T01:59:46.985Z,56.200001
2018-07-03T02:09:51.626Z,57.5
2018-07-03T02:14:53.960Z,58.5
2018-07-03T02:19:56.221Z,59
2018-07-03T02:24:58.467Z,59.400002
2018-07-03T02:30:00.818Z,59.799999
2018-07-03T02:35:03.183Z,60.700001
2018-07-03T02:40:05.421Z,61.700001
2018-07-03T02:45:07.805Z,62.700001
2018-07-03T02:50:10.080Z,63.400002
2018-07-03T02:55:12.281Z,63.900002
2018-07-03T03:00:14.661Z,64
2018-07-03T03:05:16.821Z,65
2018-07-03T03:10:19.171Z,65.400002
2018-07-03T03:15:21.367Z,66.099998
2018-07-03T03:20:23.791Z,66.099998
2018-07-03T03:25:26.078Z,66.800003
2018-07-03T03:30:28.386Z,66.699997
2018-07-03T03:35:30.774Z,66.900002
2018-07-03T03:40:32.940Z,66.900002
2018-07-03T03:45:36.418Z,67.199997
2018-07-03T03:50:37.513Z,68
2018-07-03T03:55:39.845Z,67.699997
2018-07-03T04:00:42.103Z,68.400002
2018-07-03T04:05:44.490Z,67.800003
2018-07-03T04:10:46.686Z,68.699997
2018-07-03T04:20:51.339Z,68.300003
2018-07-03T04:25:53.620Z,68.300003
2018-07-03T04:30:55.790Z,67.699997
2018-07-03T04:35:58.258Z,68.5
2018-07-03T04:41:00.537Z,67.900002
2018-07-03T04:46:02.695Z,67.099998
2018-07-03T04:51:05.013Z,66.699997
2018-07-03T04:56:07.330Z,67.699997
2018-07-03T05:01:09.599Z,66.800003
2018-07-03T05:06:11.994Z,66.599998
2018-07-03T05:11:14.265Z,65.800003
2018-07-03T05:16:16.424Z,65.400002
2018-07-03T05:21:18.863Z,65.800003
2018-07-03T05:26:21.169Z,64.699997
2018-07-03T05:31:23.450Z,64.900002
2018-07-03T05:36:25.829Z,64.900002
2018-07-03T05:41:29.957Z,63.900002
2018-07-03T05:46:30.294Z,62.700001
2018-07-03T05:51:32.563Z,62.900002
2018-07-03T05:56:34.990Z,61.700001
2018-07-03T06:01:37.321Z,61.799999
2018-07-03T06:06:39.426Z,60.099998
2018-07-03T06:11:45.958Z,60.200001
2018-07-03T06:16:44.114Z,58.299999
2018-07-03T06:21:46.332Z,59.099998
2018-07-03T06:32:00.598Z,55.599998
2018-07-03T06:37:03.035Z,57
2018-07-03T06:42:05.243Z,55.599998
2018-07-03T06:47:07.493Z,53.900002
2018-07-03T06:52:09.728Z,52.299999
2018-07-03T06:57:12.126Z,51.799999
2018-07-03T07:02:14.376Z,51.900002
2018-07-03T07:07:16.679Z,53
2018-07-03T07:12:18.897Z,52.099998
2018-07-03T07:17:21.249Z,52.599998
2018-07-03T07:22:23.490Z,50.299999
2018-07-03T07:27:25.796Z,49.299999
2018-07-03T07:32:28.124Z,48.700001
2018-07-03T07:37:30.392Z,47
2018-07-03T07:42:32.662Z,46.900002
2018-07-03T07:47:35.007Z,44.200001
2018-07-03T07:52:37.335Z,47
2018-07-03T07:57:39.490Z,43.700001
2018-07-03T08:02:41.881Z,42.900002
2018-07-03T08:07:44.119Z,43.799999
2018-07-03T08:12:46.476Z,42
2018-07-03T08:17:48.749Z,42.299999
2018-07-03T08:27:53.392Z,40.5
2018-07-03T08:32:55.530Z,39.900002
2018-07-03T08:37:57.971Z,36.900002
2018-07-03T08:43:00.137Z,38.5
2018-07-03T08:48:02.593Z,37.299999
2018-07-03T08:53:04.802Z,36.700001
2018-07-03T08:58:07.110Z,36
2018-07-03T09:03:09.429Z,36.099998
2018-07-03T09:08:11.939Z,36.099998
2018-07-03T09:13:13.987Z,38.5
2018-07-03T09:18:16.384Z,37.400002
2018-07-03T09:23:18.606Z,34.400002
2018-07-03T09:28:20.858Z,34.099998
2018-07-03T09:33:23.134Z,33.700001
2018-07-03T09:38:25.534Z,36
2018-07-03T09:43:27.790Z,33.700001
2018-07-03T09:48:30.119Z,34.299999
2018-07-03T09:53:32.337Z,34.599998
2018-07-03T09:58:34.568Z,33.099998
2018-07-03T10:03:36.889Z,32.099998
2018-07-03T10:08:39.264Z,32.700001
2018-07-03T10:13:41.445Z,33
2018-07-03T10:18:43.790Z,31.200001
2018-07-03T10:23:46.088Z,29.700001
2018-07-03T10:28:48.370Z,29.799999
2018-07-03T10:33:50.671Z,31.6
2018-07-03T10:38:53.063Z,30.299999
2018-07-03T10:43:55.253Z,30.700001
2018-07-03T10:48:57.551Z,30.799999
2018-07-03T10:53:59.921Z,32.099998
2018-07-03T10:59:02.386Z,31.200001
2018-07-03T11:04:04.408Z,28.9
2018-07-03T11:09:06.712Z,27.4
2018-07-03T11:14:09.259Z,30
2018-07-03T11:19:11.389Z,28.299999
2018-07-03T11:24:13.612Z,30.1
2018-07-03T11:29:15.965Z,28.4
2018-07-03T11:34:18.299Z,27.5
2018-07-03T11:39:20.523Z,27.9
2018-07-03T11:44:22.765Z,28.700001
2018-07-03T11:49:25.092Z,29
2018-07-03T11:54:27.403Z,27.5
2018-07-03T11:59:29.699Z,25.700001
2018-07-03T12:04:32.070Z,27.9
2018-07-03T12:09:34.352Z,25
2018-07-03T12:14:36.523Z,24.200001
2018-07-03T12:19:38.988Z,24.299999
2018-07-03T12:24:41.131Z,24
2018-07-03T12:29:43.374Z,26.5
2018-07-03T12:34:45.788Z,23.6
2018-07-03T12:39:48.089Z,22.200001
2018-07-03T12:44:50.435Z,26.5
2018-07-03T12:49:52.809Z,23.200001
2018-07-03T12:54:54.874Z,23.4
2018-07-03T12:59:57.397Z,22.9
2018-07-03T13:04:59.541Z,22.299999
2018-07-03T13:10:01.790Z,22.299999
2018-07-03T13:15:04.126Z,23.299999
2018-07-03T13:20:06.461Z,23.200001
2018-07-03T13:25:08.681Z,21.700001
2018-07-03T13:30:11.072Z,22.4
2018-07-03T13:35:13.300Z,24.5
2018-07-03T13:40:15.645Z,22.5
2018-07-03T13:45:17.934Z,22.700001
2018-07-03T13:50:20.098Z,24
2018-07-03T13:55:22.732Z,25
2018-07-03T14:00:24.743Z,25.9
2018-07-03T14:05:27.096Z,24.5
2018-07-03T14:10:29.295Z,26.299999
2018-07-03T14:15:31.673Z,25.9
2018-07-03T14:20:33.989Z,21
2018-07-03T14:25:36.249Z,21.1
2018-07-03T14:30:38.576Z,18.6
2018-07-03T14:35:40.804Z,23.799999
2018-07-03T14:40:43.057Z,24.200001
2018-07-03T14:45:45.402Z,25.4
2018-07-03T14:50:47.784Z,28.6
2018-07-03T14:55:50.110Z,31.1
2018-07-03T15:00:52.380Z,32
2018-07-03T15:05:54.623Z,30.799999
2018-07-03T15:10:56.883Z,33
2018-07-03T15:15:59.223Z,29.700001
2018-07-03T15:21:01.566Z,29.799999
2018-07-03T15:26:03.739Z,27.200001
2018-07-03T15:31:06.004Z,25.700001
2018-07-03T15:36:08.293Z,28.700001
2018-07-03T15:41:10.552Z,26.4
2018-07-03T15:51:23.789Z,30.200001
2018-07-03T15:56:25.953Z,30.1
2018-07-03T16:01:28.339Z,37
2018-07-03T16:11:32.928Z,34.700001
2018-07-03T16:16:36.264Z,32.299999
2018-07-03T16:21:37.616Z,39.099998
2018-07-03T16:26:39.842Z,37.400002
2018-07-03T16:31:42.172Z,36.099998
2018-07-03T16:41:46.707Z,35.299999
2018-07-03T16:46:49.182Z,36.700001
2018-07-03T16:51:51.484Z,34.700001
2018-07-03T17:01:57.594Z,32.700001
2018-07-03T17:12:23.110Z,34.299999
2018-07-03T17:17:25.277Z,37
2018-07-03T17:22:27.517Z,36.400002
2018-07-03T17:27:29.928Z,37.200001
2018-07-03T17:32:32.232Z,33.400002
2018-07-03T17:37:34.394Z,36.099998
2018-07-03T17:42:36.799Z,36
2018-07-03T17:47:39.106Z,37.200001
2018-07-03T17:52:41.364Z,36.700001
2018-07-03T17:57:43.649Z,37
2018-07-03T18:02:45.957Z,37.099998
2018-07-03T18:07:48.241Z,37.599998
2018-07-03T18:12:50.550Z,36.700001
2018-07-03T18:17:52.937Z,37.400002
2018-07-03T18:22:55.225Z,41.200001
2018-07-03T18:27:57.411Z,40.400002
2018-07-03T18:32:59.957Z,43.299999
2018-07-03T18:38:02.127Z,44.200001
2018-07-03T18:43:04.298Z,45.299999
2018-07-03T18:48:06.725Z,46
2018-07-03T18:53:09.883Z,47
2018-07-03T18:58:11.124Z,48.599998
2018-07-03T19:03:13.482Z,47.5
2018-07-03T19:08:15.724Z,48.5
2018-07-03T19:13:18.158Z,48.599998
2018-07-03T19:18:20.545Z,49.400002
2018-07-03T19:23:22.761Z,50.400002
2018-07-03T19:28:24.928Z,51.5
2018-07-03T19:33:27.251Z,52.299999
2018-07-03T19:43:31.831Z,52.299999
2018-07-03T19:48:34.217Z,53.900002
2018-07-03T19:53:36.489Z,53.900002
2018-07-03T19:58:38.728Z,54.299999
2018-07-03T20:03:41.083Z,55.299999
2018-07-03T20:13:45.625Z,56.799999
2018-07-03T20:18:47.846Z,56.799999
2018-07-03T20:23:50.244Z,57.400002
2018-07-03T20:28:52.571Z,58
2018-07-03T20:33:54.976Z,57.900002
2018-07-03T20:38:57.038Z,58.299999
2018-07-03T20:43:59.395Z,59.200001
2018-07-03T20:49:01.784Z,59.299999
2018-07-03T20:54:04.129Z,60.200001
2018-07-03T20:59:06.282Z,60.5
2018-07-03T21:04:08.728Z,61.099998
2018-07-03T21:09:10.821Z,61.5
2018-07-03T21:14:13.140Z,61
2018-07-03T21:19:15.525Z,61.099998
2018-07-03T21:24:17.680Z,62.099998
2018-07-03T21:29:20.185Z,61.400002
2018-07-03T21:34:22.405Z,60.900002
2018-07-03T21:39:24.757Z,61.599998
2018-07-03T21:44:27.034Z,62.299999
2018-07-03T21:49:29.310Z,61.599998
2018-07-03T21:54:31.590Z,61.799999
2018-07-03T21:59:34.054Z,62.799999
2018-07-03T22:04:36.141Z,61.799999
2018-07-03T22:09:40.440Z,62.099998
2018-07-03T22:14:40.739Z,62.700001
2018-07-03T22:19:43.041Z,63.200001
2018-07-03T22:24:45.401Z,63.5
2018-07-03T22:29:47.598Z,63.900002
2018-07-03T22:34:49.954Z,63.200001
2018-07-03T22:39:52.209Z,63.700001
2018-07-03T22:44:54.380Z,64
2018-07-03T22:49:56.695Z,64.199997
2018-07-03T22:54:59.089Z,64.199997
2018-07-03T23:00:01.346Z,65.300003
2018-07-03T23:05:03.620Z,65.900002
2018-07-03T23:10:06.082Z,66.099998
2018-07-03T23:15:08.308Z,66.800003
2018-07-03T23:20:10.521Z,68.300003
2018-07-03T23:25:12.795Z,67.699997
2018-07-03T23:30:15.134Z,67.800003
2018-07-03T23:35:19.012Z,68.400002
2018-07-03T23:40:19.633Z,69.099998
2018-07-03T23:45:21.933Z,69.800003
2018-07-03T23:50:24.333Z,70
2018-07-03T23:55:26.530Z,70.699997
